• Join FlightAware (Why Join?)
  • Login
  • US Flag 
09:17AM EST


 

Airport Tracker/Info


-or-


 

Live Flight TrackerFlight Track Log ✈ FFT931 ✈ 31-Jul-2014 ✈ KTTN - KCLT

Flight Track Log - Related Links

Times and Time Zones

All times are in EDT time to prevent confusion due to time zone crossing. See the FFT931 flight status page for this flight to view local times or setup timezone preferences in your user account.

Time Position Orientation Groundspeed Altitude Reporting Facility
EDT Latitude Longitude Course Direction KTS MPH feet Rate Location/Type
09:31PM 40.2667 -74.8333 270° West 122 140 1,200  Level Philadelphia TRACON
09:32PM 40.2500 -74.8667 237° Southwest 183 211 2,400 1,800 Climbing Philadelphia TRACON
09:33PM 40.2344 -74.9769 260° West 281 323 4,900 2,040 Climbing New York Center
09:34PM 40.2164 -75.0739 256° West 267 307 7,000 1,380 Climbing New York Center
09:35PM 40.1781 -75.1503 237° Southwest 276 318 7,700 1,440 Climbing New York Center
09:36PM 40.1333 -75.2342 235° Southwest 301 346 10,000 1,140 Climbing New York Center
09:37PM 39.9833 -75.4502 270° West  Level FlightAware Approximate
09:37PM 40.0858 -75.3289 237° Southwest 301 346 10,000  Level New York Center
09:38PM 40.0342 -75.4258 235° Southwest 346 398 10,000 1,440 Level New York Center
09:39PM 39.9689 -75.5489 235° Southwest 377 434 12,900 2,820 Climbing New York Center
09:40PM 39.9214 -75.6403 236° Southwest 371 427 15,800 2,400 Climbing New York Center
09:41PM 39.8578 -75.7631 236° Southwest 371 427 17,900 2,040 Climbing New York Center
09:42PM 39.8036 -75.8619 235° Southwest 371 427 19,900 2,040 Climbing New York Center
09:44PM 39.6669 -76.0742 230° Southwest 373 429 24,000 1,920 Climbing Washington Center
09:45PM 39.5975 -76.1839 231° Southwest 384 442 25,700 2,400 Climbing Washington Center
09:46PM 39.5283 -76.2856 229° Southwest 390 449 28,800 2,100 Climbing Washington Center
09:47PM 39.4608 -76.3925 231° Southwest 390 449 29,900 1,260 Climbing Washington Center
09:48PM 39.3956 -76.4992 232° Southwest 390 449 31,300 1,320 Climbing Washington Center
09:49PM 39.3239 -76.6058 229° Southwest 390 449 32,600 1,380 Climbing Washington Center
09:50PM 39.2561 -76.7119 231° Southwest 390 449 34,200 1,500 Climbing Washington Center
09:51PM 39.1906 -76.8128 230° Southwest 385 443 35,600 1,260 Climbing Washington Center
09:52PM 39.1269 -76.9161 232° Southwest 373 429 36,800 960 Climbing Washington Center
09:53PM 39.0614 -77.0164 230° Southwest 373 429 37,600 540 Climbing Washington Center
09:54PM 38.9831 -77.1031 221° Southwest 373 429 38,000 180 Climbing Washington Center
09:55PM 38.8986 -77.2000 222° Southwest 373 429 38,000  Level Washington Center
09:56PM 38.8139 -77.2886 219° Southwest 380 437 38,000  Level Washington Center
09:57PM 38.7333 -77.3772 221° Southwest 386 444 38,000  Level Washington Center
09:58PM 38.6486 -77.4683 220° Southwest 386 444 38,000  Level Washington Center
09:59PM 38.5658 -77.5567 220° Southwest 386 444 38,000  Level Washington Center
10:00PM 38.4850 -77.6472 221° Southwest 386 444 38,000  Level Washington Center
10:01PM 38.4022 -77.7350 220° Southwest 386 444 38,000  Level Washington Center
10:02PM 38.3214 -77.8228 220° Southwest 386 444 38,000  Level Washington Center
10:03PM 38.2406 -77.9103 220° Southwest 386 444 38,000  Level Washington Center
10:04PM 38.1656 -78.0083 226° Southwest 386 444 38,000  Level Washington Center
10:05PM 38.0928 -78.1089 227° Southwest 386 444 38,000  Level Washington Center
10:06PM 38.0217 -78.2092 228° Southwest 392 451 38,000  Level Washington Center
10:07PM 37.9592 -78.2967 228° Southwest 384 442 38,000  Level Washington Center
10:08PM 37.8861 -78.3939 226° Southwest 384 442 38,000  Level Washington Center
10:09PM 37.8128 -78.4936 227° Southwest 390 449 38,000  Level Washington Center
10:10PM 37.7394 -78.5933 227° Southwest 390 449 38,000  Level Washington Center
10:11PM 37.6661 -78.6928 227° Southwest 390 449 38,000  Level Washington Center
10:12PM 37.5925 -78.7894 226° Southwest 390 449 38,000  Level Washington Center
10:13PM 37.5169 -78.8856 225° Southwest 385 443 38,000  Level Washington Center
10:14PM 37.4453 -78.9847 228° Southwest 385 443 38,000  Level Washington Center
10:15PM 37.3694 -79.0806 225° Southwest 385 443 38,000 -360 Level Washington Center
10:16PM 37.2958 -79.1789 227° Southwest 385 443 37,300 -900 Descending Washington Center
10:17PM 37.2117 -79.2689 220° Southwest 385 443 36,300 -1,020 Descending Washington Center
10:18PM 37.1194 -79.3453 213° Southwest 390 449 35,300 -960 Descending Washington Center
10:19PM 37.0275 -79.4242 214° Southwest 406 467 34,400 -840 Descending Washington Center
10:20PM 36.9331 -79.5000 213° Southwest 411 473 33,700 -720 Descending Washington Center
10:22PM 36.7594 -79.6392 213° Southwest 412 474 32,600 -600 Descending Atlanta Center
10:23PM 36.6642 -79.7194 214° Southwest 412 474 32,100 -1,140 Descending Atlanta Center
10:24PM 36.5669 -79.7972 213° Southwest 418 481 30,400 -2,700 Descending Atlanta Center
10:25PM 36.4653 -79.8775 212° Southwest 423 487 26,800 -2,940 Descending Atlanta Center
10:26PM 36.3700 -79.9572 214° Southwest 428 493 24,600 -1,440 Descending Atlanta Center
10:27PM 36.2806 -80.0311 214° Southwest 411 473 24,000 -720 Descending Atlanta Center
10:28PM 36.1975 -80.1047 216° Southwest 388 447 23,200 -1,500 Descending Atlanta Center
10:29PM 36.1142 -80.1731 214° Southwest 376 433 21,000 -2,520 Descending Atlanta Center
10:30PM 36.0331 -80.2436 215° Southwest 369 425 18,200 -2,520 Descending Atlanta Center
10:31PM 35.9536 -80.3089 214° Southwest 364 419 16,000 -1,860 Descending Atlanta Center
10:32PM 35.8806 -80.3764 217° Southwest 354 407 14,500 -1,500 Descending Atlanta Center
10:33PM 35.8136 -80.4358 216° Southwest 314 361 13,200 -960 Descending Atlanta Center
10:34PM 35.7647 -80.4764 214° Southwest 295 339 13,000 -240 Descending Atlanta Center
10:34PM 35.7381 -80.4953 210° Southwest 320 368 13,000  Level Atlanta Center
10:35PM 35.6994 -80.5328 218° Southwest 291 335 13,000  Level Atlanta Center
10:35PM 35.6708 -80.5519 209° Southwest 310 357 13,000  Level Atlanta Center
10:36PM 35.6239 -80.5922 215° Southwest 297 342 13,000  Level Atlanta Center
10:36PM 35.6036 -80.6086 213° Southwest 305 351 13,000  Level Atlanta Center
10:37PM 35.5567 -80.6514 217° Southwest 300 345 13,000  Level Atlanta Center
10:37PM 35.5342 -80.6650 206° Southwest 300 345 13,000 -240 Level Atlanta Center
10:38PM 35.4894 -80.7050 216° Southwest 302 348 12,800 -600 Descending Atlanta Center
10:38PM 35.4647 -80.7214 208° Southwest 300 345 12,400 -1,620 Descending Atlanta Center
10:39PM 35.4242 -80.7639 221° Southwest 297 342 11,200 -1,800 Descending Atlanta Center
10:39PM 35.3956 -80.7803 205° Southwest 300 345 10,600 -1,560 Descending Atlanta Center
10:40PM 35.3506 -80.8228 218° Southwest 293 337 9,500 -1,500 Descending Atlanta Center
10:40PM 35.3303 -80.8364 209° Southwest 300 345 9,100 -540 Descending Atlanta Center
10:41PM 35.2800 -80.8381 182° South 255 293 9,000 -120 Descending Atlanta Center
10:41PM 35.2592 -80.8364 176° South 267 307 9,000 -720 Level Atlanta Center
10:42PM 35.1922 -80.8314 177° South 255 293 8,100 -960 Descending Atlanta Center
10:43PM 35.1442 -80.8281 177° South 225 259 7,300 -1,560 Descending Atlanta Center
10:44PM 35.0772 -80.8206 175° South 220 253 5,200 -1,560 Descending Atlanta Center
10:45PM 35.0278 -80.8478 204° Southwest 220 253 4,000 -1,140 Descending Atlanta Center
10:46PM 35.0131 -80.9219 256° West 235 270 3,000 -480 Descending Atlanta Center
10:47PM 35.0725 -80.9553 335° Northwest 216 249 3,000 -480 Level Atlanta Center
10:48PM 35.1289 -80.9608 355° North 203 234 2,100 -900 Descending Atlanta Center
10:49PM 35.1728 -80.9642 356° North 156 180 1,300 -900 Descending Atlanta Center
10:51PM 35.2000 -80.9333 324° Northwest  Level FlightAware Approximate
10:58PM 35.2137 -80.9491 324° Northwest  Level Estimated